Time;durP1;ratioP1;P1;durP2;ratioP2;P2;SDS_P1;SDS_P2;PMS_P1;PMS_P2;Temp;Humidity;BMP_temperature;BMP_pressure;BME280_temperature;BME280_humidity;BME280_pressure;Samples;Min_cycle;Max_cycle;Signal;HPM_P1;HPM_P2
2022/07/08 00:02:06;;;;;;;11.07;2.28;;;;;;;;;;4955663;28;20187;-49
2022/07/08 00:04:32;;;;;;;13.10;2.20;;;;;;;;;;4949973;29;20237;-50
2022/07/08 00:06:58;;;;;;;12.45;1.90;;;;;;;;;;4955245;28;20183;-51
2022/07/08 00:09:26;;;;;;;10.35;2.00;;;;;;;;;;4954906;28;20198;-53
2022/07/08 00:11:53;;;;;;;10.05;1.80;;;;;;;;;;4956377;29;20202;-50
2022/07/08 00:14:19;;;;;;;8.95;1.70;;;;;;;;;;4955773;28;20230;-50
2022/07/08 00:16:45;;;;;;;9.93;1.80;;;;;;;;;;4955667;29;20182;-52
2022/07/08 00:19:13;;;;;;;12.38;1.90;;;;;;;;;;4955016;28;20701;-49
2022/07/08 00:21:39;;;;;;;14.80;2.00;;;;;;;;;;4939336;29;20297;-51
2022/07/08 00:24:05;;;;;;;10.80;1.95;;;;;;;;;;4956355;29;20205;-52
2022/07/08 00:26:32;;;;;;;9.35;1.88;;;;;;;;;;4923334;29;20186;-53
2022/07/08 00:28:58;;;;;;;13.18;2.10;;;;;;;;;;4954522;28;20194;-52
2022/07/08 00:31:24;;;;;;;12.52;2.03;;;;;;;;;;4955799;29;20693;-57
2022/07/08 00:33:50;;;;;;;16.02;2.40;;;;;;;;;;4938743;29;20191;-55
2022/07/08 00:36:16;;;;;;;11.68;2.38;;;;;;;;;;4955631;29;20218;-54
2022/07/08 00:38:42;;;;;;;10.55;2.33;;;;;;;;;;4947241;29;20215;-54
2022/07/08 00:41:08;;;;;;;11.38;2.00;;;;;;;;;;4956284;29;20193;-57
2022/07/08 00:43:39;;;;;;;13.63;2.08;;;;;;;;;;4955541;29;20190;-54
2022/07/08 00:46:05;;;;;;;11.35;2.20;;;;;;;;;;4937957;29;20183;-51
2022/07/08 00:48:32;;;;;;;15.02;2.00;;;;;;;;;;4937113;29;20207;-53
2022/07/08 00:50:59;;;;;;;8.45;2.05;;;;;;;;;;4938245;29;20181;-51
2022/07/08 00:53:25;;;;;;;17.42;2.30;;;;;;;;;;4955741;29;20639;-57
2022/07/08 00:55:52;;;;;;;14.05;2.35;;;;;;;;;;4955238;29;20659;-51
2022/07/08 00:58:18;;;;;;;11.88;2.00;;;;;;;;;;4953735;28;20210;-52
2022/07/08 01:00:44;;;;;;;7.97;1.90;;;;;;;;;;4938309;29;20187;-53
2022/07/08 01:03:11;;;;;;;8.88;1.80;;;;;;;;;;4955593;29;20257;-51
2022/07/08 01:05:37;;;;;;;14.82;2.33;;;;;;;;;;4938273;29;20537;-54
2022/07/08 01:08:04;;;;;;;10.50;1.80;;;;;;;;;;4937993;29;20198;-54
2022/07/08 01:10:30;;;;;;;7.07;1.88;;;;;;;;;;4955240;29;20642;-53
2022/07/08 01:12:57;;;;;;;9.77;2.05;;;;;;;;;;4954303;28;20673;-52
2022/07/08 01:15:23;;;;;;;9.52;2.20;;;;;;;;;;4955077;29;20250;-50
2022/07/08 01:17:50;;;;;;;10.43;2.20;;;;;;;;;;4953694;28;20202;-53
2022/07/08 01:20:16;;;;;;;9.95;2.25;;;;;;;;;;4955452;29;20198;-52
2022/07/08 01:22:42;;;;;;;18.10;2.50;;;;;;;;;;4936913;29;20245;-53
2022/07/08 01:25:10;;;;;;;12.15;2.00;;;;;;;;;;4936090;29;20184;-52
2022/07/08 01:27:36;;;;;;;17.45;2.47;;;;;;;;;;4924316;29;20182;-53
2022/07/08 01:30:04;;;;;;;12.65;2.60;;;;;;;;;;4955125;29;20182;-50
2022/07/08 01:32:33;;;;;;;10.10;2.47;;;;;;;;;;4955186;29;20237;-50
2022/07/08 01:35:00;;;;;;;8.93;2.45;;;;;;;;;;4954952;29;20236;-52
2022/07/08 01:37:26;;;;;;;15.38;2.47;;;;;;;;;;4953869;28;20186;-51
2022/07/08 01:39:52;;;;;;;11.20;2.15;;;;;;;;;;4954532;29;20709;-54
2022/07/08 01:42:18;;;;;;;7.85;2.10;;;;;;;;;;4921654;29;20178;-52
2022/07/08 01:44:44;;;;;;;10.48;2.40;;;;;;;;;;4954814;29;20246;-52
2022/07/08 01:47:10;;;;;;;13.88;2.40;;;;;;;;;;4944754;29;20183;-51
2022/07/08 01:49:37;;;;;;;15.23;2.53;;;;;;;;;;4937663;29;20190;-52
2022/07/08 01:52:05;;;;;;;13.18;2.53;;;;;;;;;;4954641;29;20242;-54
2022/07/08 01:54:31;;;;;;;12.25;2.17;;;;;;;;;;4937553;29;20715;-49
2022/07/08 01:57:15;;;;;;;14.55;2.33;;;;;;;;;;4936914;29;20189;-54
2022/07/08 01:59:48;;;;;;;10.43;2.30;;;;;;;;;;4952997;28;20716;-53
2022/07/08 02:02:16;;;;;;;11.52;2.33;;;;;;;;;;4954306;29;20325;-51
2022/07/08 02:04:42;;;;;;;13.05;2.45;;;;;;;;;;4955208;29;20179;-55
2022/07/08 02:07:08;;;;;;;16.33;2.67;;;;;;;;;;4954708;29;20281;-55
2022/07/08 02:09:36;;;;;;;10.50;2.60;;;;;;;;;;4952853;28;20920;-52
2022/07/08 02:12:18;;;;;;;12.45;2.83;;;;;;;;;;4953494;29;20267;-55
2022/07/08 02:14:55;;;;;;;14.85;2.90;;;;;;;;;;4953923;28;20230;-54
2022/07/08 02:17:22;;;;;;;11.50;2.55;;;;;;;;;;4936788;29;20285;-47
2022/07/08 02:19:49;;;;;;;11.60;2.78;;;;;;;;;;4936458;29;20214;-50
2022/07/08 02:22:15;;;;;;;12.60;2.85;;;;;;;;;;4937893;29;20651;-52
2022/07/08 02:24:42;;;;;;;10.38;2.30;;;;;;;;;;4954715;28;20186;-51
2022/07/08 02:27:08;;;;;;;9.30;2.65;;;;;;;;;;4958694;29;20190;-54
2022/07/08 02:29:35;;;;;;;11.32;2.60;;;;;;;;;;4954402;28;20199;-50
2022/07/08 02:32:01;;;;;;;14.30;2.30;;;;;;;;;;4956631;28;20179;-53
2022/07/08 02:34:27;;;;;;;12.80;2.40;;;;;;;;;;4957659;28;20249;-53
2022/07/08 02:36:54;;;;;;;13.07;2.20;;;;;;;;;;4957755;29;20257;-51
2022/07/08 02:39:21;;;;;;;12.93;2.05;;;;;;;;;;4958022;29;20325;-49
2022/07/08 02:41:47;;;;;;;13.13;2.45;;;;;;;;;;4956183;28;21861;-51
2022/07/08 02:44:13;;;;;;;14.02;2.42;;;;;;;;;;4957956;29;20179;-53
2022/07/08 02:46:41;;;;;;;13.15;2.55;;;;;;;;;;4956166;29;20183;-53
2022/07/08 02:49:08;;;;;;;18.23;2.15;;;;;;;;;;4957051;28;20198;-53
2022/07/08 02:51:35;;;;;;;10.02;2.40;;;;;;;;;;4956957;29;20225;-54
2022/07/08 02:54:01;;;;;;;8.85;2.40;;;;;;;;;;4957656;29;20249;-54
2022/07/08 02:56:28;;;;;;;15.05;2.30;;;;;;;;;;4957918;29;20241;-55
2022/07/08 02:58:54;;;;;;;12.77;2.30;;;;;;;;;;4938636;29;20206;-53
2022/07/08 03:01:20;;;;;;;13.35;2.50;;;;;;;;;;4956029;28;20186;-54
2022/07/08 03:03:46;;;;;;;20.30;2.67;;;;;;;;;;4940288;29;20796;-53
2022/07/08 03:06:12;;;;;;;11.15;2.10;;;;;;;;;;4957592;29;20175;-52
2022/07/08 03:08:39;;;;;;;8.38;2.30;;;;;;;;;;4956716;28;20256;-54
2022/07/08 03:11:05;;;;;;;9.65;2.28;;;;;;;;;;4940693;29;20189;-53
2022/07/08 03:13:32;;;;;;;10.50;2.63;;;;;;;;;;4957185;29;20278;-55
2022/07/08 03:15:58;;;;;;;8.80;2.38;;;;;;;;;;4940324;29;20186;-51
2022/07/08 03:18:24;;;;;;;11.20;2.55;;;;;;;;;;4956672;29;20696;-58
2022/07/08 03:20:50;;;;;;;19.02;2.80;;;;;;;;;;4955687;28;20201;-55
2022/07/08 03:23:17;;;;;;;13.68;2.38;;;;;;;;;;4957481;29;20187;-55
2022/07/08 03:25:43;;;;;;;13.50;2.17;;;;;;;;;;4940384;29;20253;-55
2022/07/08 03:28:09;;;;;;;11.02;2.72;;;;;;;;;;4940538;28;20198;-57
2022/07/08 03:30:35;;;;;;;12.18;2.40;;;;;;;;;;4955676;28;20233;-54
2022/07/08 03:33:01;;;;;;;15.85;2.80;;;;;;;;;;4957248;29;20635;-52
2022/07/08 03:35:27;;;;;;;9.45;2.45;;;;;;;;;;4955998;28;20239;-53
2022/07/08 03:37:54;;;;;;;10.65;2.25;;;;;;;;;;4938669;29;20214;-50
2022/07/08 03:43:04;;;;;;;8.23;2.42;;;;;;;;;;4957104;29;20186;-52
2022/07/08 03:45:30;;;;;;;9.13;2.63;;;;;;;;;;4933925;29;20190;-50
2022/07/08 03:47:57;;;;;;;14.70;2.58;;;;;;;;;;4937490;28;20198;-54
2022/07/08 03:50:23;;;;;;;13.45;2.83;;;;;;;;;;4955812;28;20190;-53
2022/07/08 03:52:49;;;;;;;10.43;2.45;;;;;;;;;;4956993;29;20175;-53
2022/07/08 03:55:15;;;;;;;11.13;2.83;;;;;;;;;;4939767;29;20187;-55
2022/07/08 03:57:41;;;;;;;10.93;2.47;;;;;;;;;;4939437;29;20194;-52
2022/07/08 04:00:08;;;;;;;9.98;2.58;;;;;;;;;;4938669;29;20206;-58
2022/07/08 04:02:35;;;;;;;13.70;2.58;;;;;;;;;;4956079;29;20179;-52
2022/07/08 04:05:01;;;;;;;17.60;2.75;;;;;;;;;;4957114;29;20177;-47
2022/07/08 04:07:27;;;;;;;12.40;2.58;;;;;;;;;;4938608;29;20266;-53
2022/07/08 04:09:54;;;;;;;12.65;2.30;;;;;;;;;;4955505;28;20217;-50
2022/07/08 04:12:20;;;;;;;13.10;2.72;;;;;;;;;;4938620;29;20226;-50
2022/07/08 04:14:46;;;;;;;11.25;2.42;;;;;;;;;;4955794;29;20300;-49
2022/07/08 04:17:12;;;;;;;18.30;2.85;;;;;;;;;;4938631;29;20639;-52
2022/07/08 04:19:38;;;;;;;11.73;2.35;;;;;;;;;;4950597;29;20308;-52
2022/07/08 04:22:04;;;;;;;19.95;2.97;;;;;;;;;;4943031;29;20190;-52
2022/07/08 04:24:30;;;;;;;13.80;2.65;;;;;;;;;;4955621;28;20343;-51
2022/07/08 04:26:56;;;;;;;14.70;2.40;;;;;;;;;;4955929;29;20209;-52
2022/07/08 04:29:23;;;;;;;18.58;2.72;;;;;;;;;;4939163;29;20611;-53
2022/07/08 04:31:49;;;;;;;10.88;2.63;;;;;;;;;;4937829;29;20638;-52
2022/07/08 04:34:15;;;;;;;10.18;2.60;;;;;;;;;;4955278;28;20261;-52
2022/07/08 04:36:41;;;;;;;10.95;2.30;;;;;;;;;;4955906;29;20198;-49
2022/07/08 04:39:07;;;;;;;12.85;2.83;;;;;;;;;;4938360;29;20222;-48
2022/07/08 04:41:33;;;;;;;20.48;3.10;;;;;;;;;;4954657;28;20222;-55
2022/07/08 04:44:00;;;;;;;14.68;2.65;;;;;;;;;;4955854;29;20189;-48
2022/07/08 04:46:26;;;;;;;14.98;2.50;;;;;;;;;;4955045;29;20280;-52
2022/07/08 04:48:52;;;;;;;11.20;3.00;;;;;;;;;;4938087;29;20614;-50
2022/07/08 04:51:19;;;;;;;11.93;3.78;;;;;;;;;;4954479;28;20179;-49
2022/07/08 04:53:45;;;;;;;15.73;3.95;;;;;;;;;;4951099;29;20214;-56
2022/07/08 04:56:11;;;;;;;11.98;2.97;;;;;;;;;;4955534;29;20200;-52
2022/07/08 04:58:37;;;;;;;16.20;3.15;;;;;;;;;;4952771;28;20210;-51
2022/07/08 05:01:03;;;;;;;11.50;3.05;;;;;;;;;;4937040;29;20248;-49
2022/07/08 05:03:29;;;;;;;14.20;3.10;;;;;;;;;;4938307;29;20182;-53
2022/07/08 05:05:55;;;;;;;22.45;3.00;;;;;;;;;;4938531;29;20367;-49
2022/07/08 05:08:21;;;;;;;19.90;3.38;;;;;;;;;;4938533;29;20250;-51
2022/07/08 05:10:48;;;;;;;18.30;3.00;;;;;;;;;;4952320;29;20249;-53
2022/07/08 05:13:14;;;;;;;16.33;3.63;;;;;;;;;;4937248;29;20265;-54
2022/07/08 05:15:40;;;;;;;13.82;3.17;;;;;;;;;;4937539;29;20222;-52
2022/07/08 05:18:07;;;;;;;16.77;3.17;;;;;;;;;;4954720;29;20210;-51
2022/07/08 05:20:33;;;;;;;27.10;3.53;;;;;;;;;;4934657;29;20198;-54
2022/07/08 05:22:59;;;;;;;19.25;3.63;;;;;;;;;;4943193;29;20193;-50
2022/07/08 05:25:25;;;;;;;15.50;2.65;;;;;;;;;;4954017;29;20182;-54
2022/07/08 05:27:51;;;;;;;12.43;2.50;;;;;;;;;;4954164;29;20186;-51
2022/07/08 05:30:17;;;;;;;12.52;2.55;;;;;;;;;;4954684;29;20229;-50
2022/07/08 05:32:43;;;;;;;16.08;3.10;;;;;;;;;;4954715;29;20186;-53
2022/07/08 05:35:10;;;;;;;9.75;2.60;;;;;;;;;;4935347;29;20193;-57
2022/07/08 05:37:38;;;;;;;16.23;3.05;;;;;;;;;;4937511;29;20198;-50
2022/07/08 05:40:07;;;;;;;14.50;2.85;;;;;;;;;;4953461;29;20214;-49
2022/07/08 05:42:33;;;;;;;14.40;3.10;;;;;;;;;;4954524;29;20245;-51
2022/07/08 05:44:59;;;;;;;16.30;3.40;;;;;;;;;;4954643;29;20175;-48
2022/07/08 05:47:25;;;;;;;17.05;3.00;;;;;;;;;;4953783;29;20183;-52
2022/07/08 05:49:51;;;;;;;12.18;2.60;;;;;;;;;;4954564;29;20191;-53
2022/07/08 05:52:18;;;;;;;19.38;2.63;;;;;;;;;;4953858;29;20187;-52
2022/07/08 05:54:47;;;;;;;14.45;3.22;;;;;;;;;;4937807;29;20711;-50
2022/07/08 05:57:14;;;;;;;11.23;2.67;;;;;;;;;;4921681;29;20208;-49
2022/07/08 05:59:40;;;;;;;21.40;3.00;;;;;;;;;;4936673;29;20603;-57
2022/07/08 06:02:06;;;;;;;12.38;2.58;;;;;;;;;;4958422;29;20221;-53
2022/07/08 06:04:32;;;;;;;12.85;3.38;;;;;;;;;;4958609;29;20179;-52
2022/07/08 06:06:58;;;;;;;11.20;3.08;;;;;;;;;;4941743;29;20569;-51
2022/07/08 06:09:24;;;;;;;10.75;2.58;;;;;;;;;;4956123;29;20193;-51
2022/07/08 06:11:51;;;;;;;17.52;2.75;;;;;;;;;;4940027;29;20223;-51
2022/07/08 06:14:17;;;;;;;13.60;2.22;;;;;;;;;;4956714;29;20233;-51
2022/07/08 06:16:43;;;;;;;12.68;2.40;;;;;;;;;;4957895;29;20179;-50
2022/07/08 06:19:10;;;;;;;15.60;2.70;;;;;;;;;;4957389;29;20217;-52
2022/07/08 06:21:36;;;;;;;15.65;3.47;;;;;;;;;;4958178;29;20187;-53
2022/07/08 06:24:02;;;;;;;10.45;2.60;;;;;;;;;;4956950;29;20208;-53
2022/07/08 06:26:29;;;;;;;15.93;3.00;;;;;;;;;;4957708;29;20217;-52
2022/07/08 06:28:55;;;;;;;14.60;2.47;;;;;;;;;;4941405;29;20186;-52
2022/07/08 06:31:21;;;;;;;16.48;2.83;;;;;;;;;;4941088;29;20211;-48
2022/07/08 06:33:48;;;;;;;11.98;2.45;;;;;;;;;;4956893;29;20194;-52
2022/07/08 06:36:14;;;;;;;11.13;2.50;;;;;;;;;;4958045;28;20221;-49
2022/07/08 06:38:40;;;;;;;13.60;2.47;;;;;;;;;;4956843;29;20254;-47
2022/07/08 06:41:06;;;;;;;14.40;2.67;;;;;;;;;;4924985;29;20186;-51
2022/07/08 06:43:32;;;;;;;7.47;1.80;;;;;;;;;;4957994;29;20269;-52
2022/07/08 06:45:59;;;;;;;12.52;2.08;;;;;;;;;;4924455;29;20277;-52
2022/07/08 06:48:25;;;;;;;8.85;2.20;;;;;;;;;;4957335;29;20189;-58
2022/07/08 06:50:51;;;;;;;16.60;2.55;;;;;;;;;;4956702;29;20195;-51
2022/07/08 06:53:17;;;;;;;11.85;2.25;;;;;;;;;;4957547;29;20643;-49
2022/07/08 06:55:43;;;;;;;9.10;2.22;;;;;;;;;;4957274;29;20189;-48
2022/07/08 06:58:10;;;;;;;16.02;2.55;;;;;;;;;;4957823;29;20210;-48
2022/07/08 07:00:36;;;;;;;19.38;2.30;;;;;;;;;;4938534;29;20210;-54
2022/07/08 07:03:02;;;;;;;12.80;2.78;;;;;;;;;;4940264;29;20191;-54
2022/07/08 07:05:28;;;;;;;15.80;2.50;;;;;;;;;;4932297;29;20187;-51
2022/07/08 07:07:54;;;;;;;16.80;2.58;;;;;;;;;;4939256;29;20183;-49
2022/07/08 07:10:20;;;;;;;19.70;3.00;;;;;;;;;;4956958;28;20329;-49
2022/07/08 07:12:46;;;;;;;27.73;2.90;;;;;;;;;;4956986;29;20187;-53
2022/07/08 07:15:12;;;;;;;10.88;2.58;;;;;;;;;;4938620;29;20230;-51
2022/07/08 07:17:42;;;;;;;13.65;2.47;;;;;;;;;;4938707;29;20300;-50
2022/07/08 07:20:09;;;;;;;15.05;2.55;;;;;;;;;;4957456;29;20210;-49
2022/07/08 07:22:35;;;;;;;9.32;2.42;;;;;;;;;;4939547;29;20190;-48
2022/07/08 07:25:01;;;;;;;10.90;2.35;;;;;;;;;;4956674;29;20190;-52
2022/07/08 07:27:28;;;;;;;7.40;2.13;;;;;;;;;;4955458;29;20642;-50
2022/07/08 07:29:54;;;;;;;16.25;2.28;;;;;;;;;;4957251;29;20179;-50
2022/07/08 07:32:20;;;;;;;9.63;1.90;;;;;;;;;;4957121;29;20187;-52
2022/07/08 07:34:46;;;;;;;6.60;1.90;;;;;;;;;;4957164;29;20179;-48
2022/07/08 07:37:13;;;;;;;7.32;2.33;;;;;;;;;;4956022;29;20218;-54
2022/07/08 07:39:39;;;;;;;12.50;2.13;;;;;;;;;;4956807;29;20230;-52
2022/07/08 07:42:05;;;;;;;7.05;1.83;;;;;;;;;;4957209;28;20194;-55
2022/07/08 07:44:31;;;;;;;6.13;2.20;;;;;;;;;;4956927;29;20204;-54
2022/07/08 07:46:57;;;;;;;7.38;2.22;;;;;;;;;;4955577;29;20663;-50
2022/07/08 07:49:24;;;;;;;7.93;1.90;;;;;;;;;;4956916;29;20269;-53
2022/07/08 07:51:50;;;;;;;6.10;2.10;;;;;;;;;;4939559;29;20186;-52
2022/07/08 07:54:17;;;;;;;17.33;1.90;;;;;;;;;;4956657;29;20190;-53
2022/07/08 07:56:43;;;;;;;7.90;2.47;;;;;;;;;;4955396;29;20194;-53
2022/07/08 07:59:09;;;;;;;8.80;1.75;;;;;;;;;;4923661;29;20230;-53
2022/07/08 08:01:35;;;;;;;12.73;1.92;;;;;;;;;;4939486;29;20281;-51
2022/07/08 08:04:02;;;;;;;13.30;2.22;;;;;;;;;;4939248;29;20242;-52
2022/07/08 08:06:28;;;;;;;7.38;1.77;;;;;;;;;;4937485;29;20563;-54
2022/07/08 08:08:56;;;;;;;11.85;2.10;;;;;;;;;;4956464;29;20187;-50
2022/07/08 08:11:22;;;;;;;9.35;2.13;;;;;;;;;;4956216;29;20194;-55
2022/07/08 08:13:48;;;;;;;5.30;1.55;;;;;;;;;;4933973;29;20233;-53
2022/07/08 08:16:15;;;;;;;11.70;1.70;;;;;;;;;;4925756;29;20195;-53
2022/07/08 08:18:41;;;;;;;11.90;2.05;;;;;;;;;;4955514;29;20232;-51
2022/07/08 08:21:07;;;;;;;12.45;1.95;;;;;;;;;;4956226;29;20190;-56
2022/07/08 08:23:33;;;;;;;12.88;2.03;;;;;;;;;;4955324;28;20215;-50
2022/07/08 08:25:59;;;;;;;9.38;1.67;;;;;;;;;;4956638;29;20216;-54
2022/07/08 08:28:25;;;;;;;6.28;1.70;;;;;;;;;;4954007;29;20234;-55
2022/07/08 08:30:52;;;;;;;8.55;1.58;;;;;;;;;;4955981;29;20209;-53
2022/07/08 08:33:18;;;;;;;10.07;1.48;;;;;;;;;;4920156;29;20703;-53
2022/07/08 08:35:44;;;;;;;9.38;1.58;;;;;;;;;;4948708;29;20198;-51
2022/07/08 08:38:11;;;;;;;3.53;1.40;;;;;;;;;;4954744;29;20220;-54
2022/07/08 08:40:38;;;;;;;6.60;1.85;;;;;;;;;;4955024;29;20199;-53
2022/07/08 08:43:04;;;;;;;5.90;1.40;;;;;;;;;;4956035;29;20201;-51
2022/07/08 08:45:31;;;;;;;20.63;1.92;;;;;;;;;;4955774;29;20183;-52
2022/07/08 08:48:02;;;;;;;7.82;1.65;;;;;;;;;;4952340;29;20190;-51
2022/07/08 08:53:15;;;;;;;5.38;1.10;;;;;;;;;;4955435;29;20194;-53
2022/07/08 08:55:43;;;;;;;6.40;1.40;;;;;;;;;;4938500;29;20190;-57
2022/07/08 08:58:09;;;;;;;4.30;1.10;;;;;;;;;;4954756;29;20229;-55
2022/07/08 09:00:35;;;;;;;4.85;1.00;;;;;;;;;;4955374;29;20673;-53
2022/07/08 09:03:02;;;;;;;7.80;1.67;;;;;;;;;;4938040;29;20680;-55
2022/07/08 09:05:30;;;;;;;2.90;1.17;;;;;;;;;;4938480;29;20175;-51
2022/07/08 09:07:57;;;;;;;7.68;3.40;;;;;;;;;;4954494;29;20183;-52
2022/07/08 09:10:23;;;;;;;4.25;1.70;;;;;;;;;;4954585;29;20190;-49
2022/07/08 09:13:07;;;;;;;5.65;1.67;;;;;;;;;;4937709;29;20190;-49
2022/07/08 09:15:42;;;;;;;8.77;1.17;;;;;;;;;;4937935;29;20593;-51
2022/07/08 09:18:10;;;;;;;6.85;1.30;;;;;;;;;;4953649;29;20209;-49
2022/07/08 09:20:39;;;;;;;5.15;1.77;;;;;;;;;;4955123;29;20178;-50
2022/07/08 09:23:08;;;;;;;8.88;1.50;;;;;;;;;;4954194;29;20183;-50
2022/07/08 09:25:34;;;;;;;4.72;1.45;;;;;;;;;;4922597;29;20186;-50
2022/07/08 09:28:00;;;;;;;24.83;2.38;;;;;;;;;;4905762;29;20186;-51
2022/07/08 09:30:30;;;;;;;12.00;1.65;;;;;;;;;;4955125;29;20181;-54
2022/07/08 09:32:58;;;;;;;11.43;1.73;;;;;;;;;;4953706;29;20186;-54
2022/07/08 09:35:35;;;;;;;7.75;1.48;;;;;;;;;;4955576;28;20643;-53
2022/07/08 09:38:02;;;;;;;5.70;1.70;;;;;;;;;;4937694;29;20213;-50
2022/07/08 09:40:28;;;;;;;7.28;1.50;;;;;;;;;;4955126;29;20185;-47
2022/07/08 09:42:54;;;;;;;5.55;1.48;;;;;;;;;;4953609;29;20205;-51
2022/07/08 09:45:27;;;;;;;8.15;1.60;;;;;;;;;;4954999;29;20185;-53
2022/07/08 09:48:00;;;;;;;7.65;1.77;;;;;;;;;;4953263;29;20657;-51
2022/07/08 09:50:34;;;;;;;8.93;1.38;;;;;;;;;;4951885;29;20197;-50
2022/07/08 09:53:00;;;;;;;4.63;1.33;;;;;;;;;;4934924;29;20277;-49
2022/07/08 09:55:31;;;;;;;15.68;2.42;;;;;;;;;;4938172;29;20182;-50
2022/07/08 09:57:59;;;;;;;8.90;2.17;;;;;;;;;;4954598;29;20178;-51
2022/07/08 10:00:25;;;;;;;8.18;1.95;;;;;;;;;;4954835;29;20218;-51
2022/07/08 10:02:51;;;;;;;10.20;1.70;;;;;;;;;;4953552;29;20714;-52
2022/07/08 10:05:17;;;;;;;4.70;1.58;;;;;;;;;;4954769;29;20183;-53
2022/07/08 10:07:43;;;;;;;3.67;1.25;;;;;;;;;;4954309;29;20186;-54
2022/07/08 10:10:09;;;;;;;9.30;1.77;;;;;;;;;;4954899;29;20213;-53
2022/07/08 10:12:36;;;;;;;6.68;1.95;;;;;;;;;;4931125;29;20194;-52
2022/07/08 10:15:02;;;;;;;10.82;1.90;;;;;;;;;;4951102;29;20230;-50
2022/07/08 10:17:33;;;;;;;18.98;2.60;;;;;;;;;;4952710;29;20549;-54
2022/07/08 10:20:00;;;;;;;12.93;2.60;;;;;;;;;;4953144;29;20217;-53
2022/07/08 10:22:26;;;;;;;12.27;2.35;;;;;;;;;;4952888;29;20281;-59
2022/07/08 10:24:53;;;;;;;7.85;2.00;;;;;;;;;;4952847;29;20661;-51
2022/07/08 10:27:24;;;;;;;8.70;2.13;;;;;;;;;;4954321;29;20186;-49
2022/07/08 10:29:50;;;;;;;13.02;2.50;;;;;;;;;;4937345;29;20187;-49
2022/07/08 10:32:23;;;;;;;6.28;2.20;;;;;;;;;;4937848;29;20193;-53
2022/07/08 10:35:07;;;;;;;12.30;2.38;;;;;;;;;;4935336;29;20186;-53
2022/07/08 10:37:54;;;;;;;10.30;2.20;;;;;;;;;;4937328;29;20229;-51
2022/07/08 10:40:38;;;;;;;13.98;2.58;;;;;;;;;;4930317;29;20212;-54
2022/07/08 10:43:24;;;;;;;14.15;2.80;;;;;;;;;;4953814;29;20647;-53
2022/07/08 10:45:59;;;;;;;9.20;2.08;;;;;;;;;;4921725;29;20218;-54
2022/07/08 10:48:27;;;;;;;13.82;2.47;;;;;;;;;;4957041;29;20662;-54
2022/07/08 10:50:53;;;;;;;9.75;2.40;;;;;;;;;;4954193;29;20561;-48
2022/07/08 10:53:19;;;;;;;16.85;2.45;;;;;;;;;;4940941;29;20238;-54
2022/07/08 10:55:47;;;;;;;12.27;2.20;;;;;;;;;;4941571;29;20658;-54
2022/07/08 10:58:13;;;;;;;10.88;2.60;;;;;;;;;;4940462;29;20250;-53
2022/07/08 11:00:39;;;;;;;11.80;2.70;;;;;;;;;;4924790;29;20277;-53
2022/07/08 11:03:09;;;;;;;7.50;2.28;;;;;;;;;;4957412;29;20183;-50
2022/07/08 11:05:40;;;;;;;10.57;2.60;;;;;;;;;;4938602;29;20262;-50
2022/07/08 11:08:26;;;;;;;14.40;2.97;;;;;;;;;;4956497;29;20707;-54
2022/07/08 11:10:53;;;;;;;10.50;2.30;;;;;;;;;;4957241;29;20179;-53
2022/07/08 11:13:20;;;;;;;13.20;2.50;;;;;;;;;;4957025;29;20225;-51
2022/07/08 11:15:46;;;;;;;19.17;2.40;;;;;;;;;;4956423;29;20186;-51
2022/07/08 11:18:20;;;;;;;9.40;2.20;;;;;;;;;;4955061;29;20223;-50
2022/07/08 11:20:46;;;;;;;13.48;2.47;;;;;;;;;;4957027;29;20270;-50
2022/07/08 11:23:12;;;;;;;14.57;2.63;;;;;;;;;;4957267;29;20269;-52
2022/07/08 11:25:39;;;;;;;13.50;2.30;;;;;;;;;;4955996;29;20210;-52
2022/07/08 11:28:19;;;;;;;15.50;2.60;;;;;;;;;;4954945;29;20209;-49
2022/07/08 11:30:45;;;;;;;11.60;2.58;;;;;;;;;;4955084;29;20229;-52
2022/07/08 11:33:11;;;;;;;13.02;2.25;;;;;;;;;;4956894;29;20183;-57
2022/07/08 11:35:41;;;;;;;16.27;2.60;;;;;;;;;;4939949;29;20190;-49
2022/07/08 11:38:07;;;;;;;12.55;2.95;;;;;;;;;;4939919;29;20222;-49
2022/07/08 11:40:45;;;;;;;9.43;2.40;;;;;;;;;;4939165;29;20205;-52
2022/07/08 11:43:15;;;;;;;40.90;4.75;;;;;;;;;;4939236;29;20190;-52
2022/07/08 11:45:41;;;;;;;15.07;2.65;;;;;;;;;;4955564;29;20197;-53
2022/07/08 11:48:07;;;;;;;11.98;2.67;;;;;;;;;;4939160;29;20216;-54
2022/07/08 11:50:37;;;;;;;11.43;2.60;;;;;;;;;;4938925;29;20254;-51
2022/07/08 11:53:03;;;;;;;13.63;2.90;;;;;;;;;;4957261;29;20194;-53
2022/07/08 11:55:29;;;;;;;25.85;2.83;;;;;;;;;;4954307;29;20194;-55
2022/07/08 11:58:04;;;;;;;12.38;2.70;;;;;;;;;;4938559;29;20265;-51
2022/07/08 12:00:30;;;;;;;9.85;2.33;;;;;;;;;;4955982;29;20194;-53
2022/07/08 12:02:56;;;;;;;19.08;2.95;;;;;;;;;;4939153;29;20210;-52
2022/07/08 12:05:23;;;;;;;18.98;2.80;;;;;;;;;;4955392;29;20552;-51
2022/07/08 12:07:50;;;;;;;17.33;2.63;;;;;;;;;;4956140;29;20193;-54
2022/07/08 12:10:22;;;;;;;12.70;2.65;;;;;;;;;;4956431;29;20187;-54
2022/07/08 12:12:56;;;;;;;11.70;2.55;;;;;;;;;;4939291;29;20253;-51
2022/07/08 12:15:23;;;;;;;13.23;2.50;;;;;;;;;;4955009;29;20245;-50
2022/07/08 12:17:58;;;;;;;12.30;2.58;;;;;;;;;;4955812;29;20666;-53
2022/07/08 12:20:32;;;;;;;19.90;2.75;;;;;;;;;;4938873;29;20198;-56
2022/07/08 12:22:58;;;;;;;17.92;3.15;;;;;;;;;;4939004;29;20183;-54
2022/07/08 12:25:25;;;;;;;15.48;2.63;;;;;;;;;;4954408;29;20210;-53
2022/07/08 12:27:58;;;;;;;19.30;2.80;;;;;;;;;;4956141;29;20179;-51
2022/07/08 12:30:28;;;;;;;14.70;3.20;;;;;;;;;;4955428;29;20193;-53
2022/07/08 12:32:59;;;;;;;18.75;2.80;;;;;;;;;;4955970;29;20194;-53
2022/07/08 12:35:29;;;;;;;12.38;2.67;;;;;;;;;;4926947;29;20226;-53
2022/07/08 12:38:05;;;;;;;12.23;2.72;;;;;;;;;;4953050;29;20623;-51
2022/07/08 12:40:44;;;;;;;20.85;3.05;;;;;;;;;;4938853;29;20677;-50
2022/07/08 12:43:11;;;;;;;14.23;2.88;;;;;;;;;;4955135;29;20178;-53
2022/07/08 12:45:37;;;;;;;20.50;2.80;;;;;;;;;;4894866;29;20195;-54
2022/07/08 12:48:03;;;;;;;22.48;3.85;;;;;;;;;;4937913;29;20195;-51
2022/07/08 12:50:33;;;;;;;15.02;2.75;;;;;;;;;;4938673;29;20706;-50
2022/07/08 12:53:00;;;;;;;20.73;3.22;;;;;;;;;;4955762;29;20179;-53
2022/07/08 12:55:27;;;;;;;28.02;3.35;;;;;;;;;;4954061;29;20230;-56
2022/07/08 12:57:53;;;;;;;24.27;3.20;;;;;;;;;;4953338;29;20182;-52
2022/07/08 13:00:19;;;;;;;14.20;3.55;;;;;;;;;;4937983;29;20278;-53
2022/07/08 13:02:46;;;;;;;22.30;3.58;;;;;;;;;;4938092;29;20178;-54
2022/07/08 13:05:12;;;;;;;19.30;3.25;;;;;;;;;;4937534;29;20506;-52
2022/07/08 13:07:38;;;;;;;22.13;3.20;;;;;;;;;;4954851;29;20186;-53
2022/07/08 13:10:05;;;;;;;27.40;3.55;;;;;;;;;;4955456;28;20774;-55
2022/07/08 13:12:31;;;;;;;15.43;3.25;;;;;;;;;;4921706;29;20269;-55
2022/07/08 13:14:57;;;;;;;20.00;4.32;;;;;;;;;;4954034;29;20241;-52
2022/07/08 13:17:23;;;;;;;25.75;3.55;;;;;;;;;;4954954;29;20234;-53
2022/07/08 13:19:50;;;;;;;10.25;3.17;;;;;;;;;;4954907;29;20214;-52
2022/07/08 13:22:17;;;;;;;10.18;2.80;;;;;;;;;;4955269;29;20186;-54
2022/07/08 13:24:43;;;;;;;14.98;3.58;;;;;;;;;;4953288;29;20193;-54
2022/07/08 13:27:09;;;;;;;20.35;3.67;;;;;;;;;;4954365;29;20209;-54
2022/07/08 13:29:36;;;;;;;14.90;3.58;;;;;;;;;;4954539;29;20273;-52
2022/07/08 13:32:02;;;;;;;18.40;3.70;;;;;;;;;;4954959;29;20197;-50
2022/07/08 13:34:28;;;;;;;16.05;3.67;;;;;;;;;;4936948;29;20674;-52
2022/07/08 13:36:54;;;;;;;18.58;3.45;;;;;;;;;;4952546;29;20534;-54
2022/07/08 13:39:21;;;;;;;11.75;3.33;;;;;;;;;;4954516;29;20210;-51
2022/07/08 13:41:47;;;;;;;13.02;3.25;;;;;;;;;;4938178;29;20399;-52
2022/07/08 13:44:13;;;;;;;12.85;3.30;;;;;;;;;;4937122;29;20191;-51
2022/07/08 13:46:39;;;;;;;14.90;2.95;;;;;;;;;;4954656;29;20179;-51
2022/07/08 13:49:06;;;;;;;18.70;3.80;;;;;;;;;;4954320;29;20202;-52
2022/07/08 13:51:33;;;;;;;15.55;3.30;;;;;;;;;;4954848;28;20229;-53
2022/07/08 13:53:59;;;;;;;11.25;3.63;;;;;;;;;;4953845;29;20686;-52
2022/07/08 13:56:25;;;;;;;18.65;3.40;;;;;;;;;;4953588;29;20186;-52
2022/07/08 13:58:51;;;;;;;11.18;3.58;;;;;;;;;;4955101;29;20199;-52
2022/07/08 14:01:18;;;;;;;12.38;3.63;;;;;;;;;;4954685;29;20190;-50
2022/07/08 14:03:46;;;;;;;13.52;3.60;;;;;;;;;;4953943;29;20447;-50
2022/07/08 14:06:12;;;;;;;17.98;3.40;;;;;;;;;;4954767;29;20213;-50
2022/07/08 14:08:38;;;;;;;9.77;3.25;;;;;;;;;;4954786;29;20186;-49
2022/07/08 14:11:04;;;;;;;11.57;3.38;;;;;;;;;;4954487;29;20270;-53
2022/07/08 14:13:31;;;;;;;9.55;3.25;;;;;;;;;;4952868;29;20306;-53
2022/07/08 14:16:00;;;;;;;12.73;3.92;;;;;;;;;;4936726;29;20627;-50
2022/07/08 14:18:26;;;;;;;12.52;3.30;;;;;;;;;;4936980;29;20293;-53
2022/07/08 14:20:53;;;;;;;15.57;3.75;;;;;;;;;;4938216;29;20191;-56
2022/07/08 14:23:20;;;;;;;10.98;3.40;;;;;;;;;;4957859;29;20175;-55
2022/07/08 14:25:46;;;;;;;14.75;3.60;;;;;;;;;;4956365;29;20642;-53
2022/07/08 14:28:16;;;;;;;9.50;3.38;;;;;;;;;;4923165;29;20194;-50
2022/07/08 14:30:43;;;;;;;13.23;3.42;;;;;;;;;;4957806;29;20186;-53
2022/07/08 14:33:09;;;;;;;12.52;3.70;;;;;;;;;;4958310;29;20175;-53
2022/07/08 14:35:36;;;;;;;12.55;3.67;;;;;;;;;;4939101;29;20187;-52
2022/07/08 14:38:02;;;;;;;12.63;4.25;;;;;;;;;;4941234;29;20249;-53
2022/07/08 14:40:29;;;;;;;13.48;3.13;;;;;;;;;;4938883;29;20195;-53